Dmitrov, Russia
Current Conditions -  °F | °C
As of 1:00 PM on Friday 21 Nov 2014 (Local Time) from UUEE Reporting Station
Haze Haze  
Wind Chill: 28°   Ceiling: 20000
Heat Index: 28°   Visibility: 1.1mi
Dew Point: 21°   Wind: 2mph
Humidity: 74%   Direction: NA
Pressure: 30.53"   Gusts: NA
Location:  56.35°N, 37.52°E
Report Text: UUEE 211000Z VRB01MPS 1900 BR BKN200 M02/M06 Q1034 7500006225120157 NOSIG
Loading
Personal Weather Stations






























Interactive Weather Map New forecast layout! Learn more

10-Day Weather Forecast

Advertisements
Track Severe Weather on mobile